National Weather Service Raw Text Product

Displaying AFOS PIL: TAFALO Received: 2018-12-06 11:29 UTC


303 
FTUS43 KDMX 061129
TAFALO
TAF
KALO 061129Z 0612/0712 33013KT P6SM FEW025
     FM070000 32006KT P6SM SKC
     FM070600 VRB03KT P6SM SKC=